Terminal Aerodrome Forecast
Issued by NWS

Home | Current Version | Previous Version | Text Only | Print | Product List | Glossary On
Versions: 1 2 3 4 5 6 7 8 9 10 11 12 13 14
399
FTUS41 KPBZ 291134
TAFHLG
TAF
KHLG 291134Z 2912/3012 21005KT P6SM BKN250
     FM291500 21015G25KT P6SM BKN050
     FM300000 20005KT P6SM BKN200=

USA.gov is the U.S. government's official web portal to all federal, state and local government web resources and services.